sensor_id;sensor_type;location;lat;lon;timestamp;pressure;altitude;pressure_sealevel;temperature;humidity
38912;BME280;28444;48.056;14.408;2023-03-31T00:00:44;97297.28;;;8.33;94.96
38912;BME280;28444;48.056;14.408;2023-03-31T00:03:12;97293.84;;;8.32;95.57
38912;BME280;28444;48.056;14.408;2023-03-31T00:05:47;97290.38;;;8.32;96.01
38912;BME280;28444;48.056;14.408;2023-03-31T00:08:14;97284.75;;;8.37;96.11
38912;BME280;28444;48.056;14.408;2023-03-31T00:10:44;97285.78;;;8.42;94.92
38912;BME280;28444;48.056;14.408;2023-03-31T00:13:12;97277.81;;;8.44;94.48
38912;BME280;28444;48.056;14.408;2023-03-31T00:15:39;97273.41;;;8.49;93.94
38912;BME280;28444;48.056;14.408;2023-03-31T00:18:05;97273.59;;;8.51;93.60
38912;BME280;28444;48.056;14.408;2023-03-31T00:20:32;97272.31;;;8.52;93.18
38912;BME280;28444;48.056;14.408;2023-03-31T00:23:04;97275.03;;;8.52;93.17
38912;BME280;28444;48.056;14.408;2023-03-31T00:25:39;97270.28;;;8.52;93.74
38912;BME280;28444;48.056;14.408;2023-03-31T00:28:07;97268.28;;;8.53;93.30
38912;BME280;28444;48.056;14.408;2023-03-31T00:30:33;97262.25;;;8.62;93.24
38912;BME280;28444;48.056;14.408;2023-03-31T00:33:00;97261.13;;;8.65;92.65
38912;BME280;28444;48.056;14.408;2023-03-31T00:35:27;97257.31;;;8.68;92.61
38912;BME280;28444;48.056;14.408;2023-03-31T00:37:53;97255.84;;;8.67;92.58
38912;BME280;28444;48.056;14.408;2023-03-31T00:40:23;97261.09;;;8.73;91.53
38912;BME280;28444;48.056;14.408;2023-03-31T00:42:50;97250.56;;;8.69;92.40
38912;BME280;28444;48.056;14.408;2023-03-31T00:45:23;97248.22;;;8.65;91.72
38912;BME280;28444;48.056;14.408;2023-03-31T00:48:07;97248.00;;;8.71;91.13
38912;BME280;28444;48.056;14.408;2023-03-31T00:50:51;97248.00;;;8.71;91.54
38912;BME280;28444;48.056;14.408;2023-03-31T00:53:23;97241.81;;;8.71;90.52
38912;BME280;28444;48.056;14.408;2023-03-31T00:55:54;97238.72;;;8.74;91.78
38912;BME280;28444;48.056;14.408;2023-03-31T00:58:23;97223.56;;;8.81;90.64
38912;BME280;28444;48.056;14.408;2023-03-31T01:00:56;97214.44;;;8.86;90.40
38912;BME280;28444;48.056;14.408;2023-03-31T01:03:23;97217.50;;;8.90;90.13
38912;BME280;28444;48.056;14.408;2023-03-31T01:06:01;97213.16;;;8.87;90.02
38912;BME280;28444;48.056;14.408;2023-03-31T01:08:31;97209.56;;;8.84;89.63
38912;BME280;28444;48.056;14.408;2023-03-31T01:11:00;97205.59;;;8.78;89.33
38912;BME280;28444;48.056;14.408;2023-03-31T01:13:29;97198.94;;;8.71;89.68
38912;BME280;28444;48.056;14.408;2023-03-31T01:15:57;97189.56;;;8.64;89.66
38912;BME280;28444;48.056;14.408;2023-03-31T01:18:23;97183.75;;;8.60;89.67
38912;BME280;28444;48.056;14.408;2023-03-31T01:21:33;97181.59;;;8.59;90.20
38912;BME280;28444;48.056;14.408;2023-03-31T01:27:42;97162.00;;;8.53;90.61
38912;BME280;28444;48.056;14.408;2023-03-31T01:33:44;97160.50;;;8.59;88.63
38912;BME280;28444;48.056;14.408;2023-03-31T01:36:43;97154.56;;;8.53;88.71
38912;BME280;28444;48.056;14.408;2023-03-31T01:42:56;97142.44;;;8.47;89.75
38912;BME280;28444;48.056;14.408;2023-03-31T01:45:53;97137.94;;;8.41;90.23
38912;BME280;28444;48.056;14.408;2023-03-31T01:48:51;97138.13;;;8.43;89.52
38912;BME280;28444;48.056;14.408;2023-03-31T01:51:33;97140.84;;;8.43;89.52
38912;BME280;28444;48.056;14.408;2023-03-31T01:54:20;97121.78;;;8.43;89.22
38912;BME280;28444;48.056;14.408;2023-03-31T01:56:54;97126.81;;;8.47;89.03
38912;BME280;28444;48.056;14.408;2023-03-31T01:59:34;97125.53;;;8.48;88.62
38912;BME280;28444;48.056;14.408;2023-03-31T02:02:11;97115.75;;;8.45;89.96
38912;BME280;28444;48.056;14.408;2023-03-31T02:04:44;97116.47;;;8.46;88.67
38912;BME280;28444;48.056;14.408;2023-03-31T02:07:16;97116.47;;;8.46;88.03
38912;BME280;28444;48.056;14.408;2023-03-31T02:09:48;97108.34;;;8.38;88.63
38912;BME280;28444;48.056;14.408;2023-03-31T02:12:18;97102.19;;;8.37;89.34
38912;BME280;28444;48.056;14.408;2023-03-31T02:14:47;97099.69;;;8.32;90.35
38912;BME280;28444;48.056;14.408;2023-03-31T02:17:18;97087.31;;;8.31;88.73
38912;BME280;28444;48.056;14.408;2023-03-31T02:19:50;97085.31;;;8.39;88.65
38912;BME280;28444;48.056;14.408;2023-03-31T02:22:19;97077.84;;;8.39;88.91
38912;BME280;28444;48.056;14.408;2023-03-31T02:24:48;97089.66;;;8.34;88.48
38912;BME280;28444;48.056;14.408;2023-03-31T02:27:27;97076.75;;;8.35;88.23
38912;BME280;28444;48.056;14.408;2023-03-31T02:29:56;97071.94;;;8.26;88.89
38912;BME280;28444;48.056;14.408;2023-03-31T02:32:39;97078.31;;;8.20;89.59
38912;BME280;28444;48.056;14.408;2023-03-31T02:35:13;97072.16;;;8.20;89.26
38912;BME280;28444;48.056;14.408;2023-03-31T02:37:41;97069.59;;;8.22;89.45
38912;BME280;28444;48.056;14.408;2023-03-31T02:40:17;97064.31;;;8.24;88.17
38912;BME280;28444;48.056;14.408;2023-03-31T02:42:44;97055.94;;;8.05;90.09
38912;BME280;28444;48.056;14.408;2023-03-31T02:45:43;97054.97;;;7.92;92.29
38912;BME280;28444;48.056;14.408;2023-03-31T02:51:33;97055.00;;;7.60;94.84
38912;BME280;28444;48.056;14.408;2023-03-31T03:01:05;97033.72;;;7.41;95.33
38912;BME280;28444;48.056;14.408;2023-03-31T03:07:04;97037.91;;;7.34;97.42
38912;BME280;28444;48.056;14.408;2023-03-31T03:09:48;97041.13;;;7.40;97.40
38912;BME280;28444;48.056;14.408;2023-03-31T03:12:36;97029.13;;;7.43;96.81
38912;BME280;28444;48.056;14.408;2023-03-31T03:15:29;97039.31;;;7.43;97.30
38912;BME280;28444;48.056;14.408;2023-03-31T03:17:58;97029.31;;;7.45;97.60
38912;BME280;28444;48.056;14.408;2023-03-31T03:20:25;97034.56;;;7.43;97.83
38912;BME280;28444;48.056;14.408;2023-03-31T03:22:52;97027.31;;;7.46;97.92
38912;BME280;28444;48.056;14.408;2023-03-31T03:25:19;97034.91;;;7.47;96.93
38912;BME280;28444;48.056;14.408;2023-03-31T03:27:49;97026.59;;;7.45;96.84
38912;BME280;28444;48.056;14.408;2023-03-31T03:30:18;97025.31;;;7.46;97.12
38912;BME280;28444;48.056;14.408;2023-03-31T03:32:45;97022.22;;;7.50;97.27
38912;BME280;28444;48.056;14.408;2023-03-31T03:35:12;97011.13;;;7.56;96.74
38912;BME280;28444;48.056;14.408;2023-03-31T03:37:38;97005.13;;;7.57;96.88
38912;BME280;28444;48.056;14.408;2023-03-31T03:40:05;97009.06;;;7.64;96.22
38912;BME280;28444;48.056;14.408;2023-03-31T03:42:33;97002.19;;;7.63;96.34
38912;BME280;28444;48.056;14.408;2023-03-31T03:45:00;96999.84;;;7.59;96.37
38912;BME280;28444;48.056;14.408;2023-03-31T03:47:27;97002.56;;;7.59;96.71
38912;BME280;28444;48.056;14.408;2023-03-31T03:49:54;96995.91;;;7.53;96.67
38912;BME280;28444;48.056;14.408;2023-03-31T03:52:21;96983.63;;;7.44;96.68
38912;BME280;28444;48.056;14.408;2023-03-31T03:54:48;96996.53;;;7.36;96.83
38912;BME280;28444;48.056;14.408;2023-03-31T03:57:15;96985.16;;;7.30;97.17
38912;BME280;28444;48.056;14.408;2023-03-31T03:59:42;96982.22;;;7.35;97.79
38912;BME280;28444;48.056;14.408;2023-03-31T04:02:08;96983.91;;;7.31;97.53
38912;BME280;28444;48.056;14.408;2023-03-31T04:04:35;96970.50;;;7.25;98.24
38912;BME280;28444;48.056;14.408;2023-03-31T04:07:02;96966.84;;;7.30;98.37
38912;BME280;28444;48.056;14.408;2023-03-31T04:09:29;96973.22;;;7.25;97.20
38912;BME280;28444;48.056;14.408;2023-03-31T04:11:56;96971.59;;;7.22;97.91
38912;BME280;28444;48.056;14.408;2023-03-31T04:14:22;96966.94;;;7.15;98.28
38912;BME280;28444;48.056;14.408;2023-03-31T04:16:50;96962.94;;;7.16;98.85
38912;BME280;28444;48.056;14.408;2023-03-31T04:19:17;96966.22;;;7.14;98.17
38912;BME280;28444;48.056;14.408;2023-03-31T04:21:44;96960.81;;;7.07;98.47
38912;BME280;28444;48.056;14.408;2023-03-31T04:24:11;96964.81;;;7.06;98.27
38912;BME280;28444;48.056;14.408;2023-03-31T04:26:41;96953.22;;;7.05;97.16
38912;BME280;28444;48.056;14.408;2023-03-31T04:29:13;96953.75;;;7.04;99.92
38912;BME280;28444;48.056;14.408;2023-03-31T04:31:42;96954.84;;;7.00;99.18
38912;BME280;28444;48.056;14.408;2023-03-31T04:34:10;96947.84;;;6.97;99.88
38912;BME280;28444;48.056;14.408;2023-03-31T04:36:45;96954.91;;;6.93;99.31
38912;BME280;28444;48.056;14.408;2023-03-31T04:39:15;96948.41;;;6.88;99.03
38912;BME280;28444;48.056;14.408;2023-03-31T04:41:42;96948.44;;;6.81;99.95
38912;BME280;28444;48.056;14.408;2023-03-31T04:44:09;96934.28;;;6.82;100.00
38912;BME280;28444;48.056;14.408;2023-03-31T04:46:36;96938.69;;;6.78;100.00
38912;BME280;28444;48.056;14.408;2023-03-31T04:49:03;96930.88;;;6.82;100.00
38912;BME280;28444;48.056;14.408;2023-03-31T04:51:31;96919.50;;;6.75;100.00
38912;BME280;28444;48.056;14.408;2023-03-31T04:53:57;96911.88;;;6.74;100.00
38912;BME280;28444;48.056;14.408;2023-03-31T04:56:24;96907.38;;;6.69;100.00
38912;BME280;28444;48.056;14.408;2023-03-31T04:58:52;96912.31;;;6.63;99.84
38912;BME280;28444;48.056;14.408;2023-03-31T05:01:19;96903.81;;;6.59;100.00
38912;BME280;28444;48.056;14.408;2023-03-31T05:03:46;96902.53;;;6.60;100.00
38912;BME280;28444;48.056;14.408;2023-03-31T05:06:16;96889.16;;;6.54;100.00
38912;BME280;28444;48.056;14.408;2023-03-31T05:08:43;96892.94;;;6.59;100.00
38912;BME280;28444;48.056;14.408;2023-03-31T05:11:10;96887.09;;;6.70;100.00
38912;BME280;28444;48.056;14.408;2023-03-31T05:13:37;96888.03;;;6.65;100.00
38912;BME280;28444;48.056;14.408;2023-03-31T05:16:08;96886.38;;;6.69;100.00
38912;BME280;28444;48.056;14.408;2023-03-31T05:18:36;96889.28;;;6.64;100.00
38912;BME280;28444;48.056;14.408;2023-03-31T05:21:17;96880.22;;;6.69;100.00
38912;BME280;28444;48.056;14.408;2023-03-31T05:23:44;96883.81;;;6.71;100.00
38912;BME280;28444;48.056;14.408;2023-03-31T05:26:12;96885.94;;;6.81;100.00
38912;BME280;28444;48.056;14.408;2023-03-31T05:28:39;96875.97;;;6.83;100.00
38912;BME280;28444;48.056;14.408;2023-03-31T05:31:07;96879.75;;;6.88;99.80
38912;BME280;28444;48.056;14.408;2023-03-31T05:33:34;96878.97;;;6.95;100.00
38912;BME280;28444;48.056;14.408;2023-03-31T05:36:07;96873.69;;;6.97;99.24
38912;BME280;28444;48.056;14.408;2023-03-31T05:38:35;96886.56;;;6.96;99.38
38912;BME280;28444;48.056;14.408;2023-03-31T05:41:02;96878.34;;;7.04;99.06
38912;BME280;28444;48.056;14.408;2023-03-31T05:43:29;96885.34;;;7.15;98.61
38912;BME280;28444;48.056;14.408;2023-03-31T05:45:55;96874.38;;;7.30;98.38
38912;BME280;28444;48.056;14.408;2023-03-31T05:48:22;96871.91;;;7.42;97.95
38912;BME280;28444;48.056;14.408;2023-03-31T05:50:49;96858.91;;;7.58;97.40
38912;BME280;28444;48.056;14.408;2023-03-31T05:53:16;96857.06;;;7.60;95.89
38912;BME280;28444;48.056;14.408;2023-03-31T05:55:42;96857.41;;;7.64;95.74
38912;BME280;28444;48.056;14.408;2023-03-31T05:58:09;96860.22;;;7.74;95.44
38912;BME280;28444;48.056;14.408;2023-03-31T06:00:36;96856.28;;;7.85;96.55
38912;BME280;28444;48.056;14.408;2023-03-31T06:03:03;96854.59;;;7.89;95.54
38912;BME280;28444;48.056;14.408;2023-03-31T06:05:30;96853.81;;;7.96;95.64
38912;BME280;28444;48.056;14.408;2023-03-31T06:07:57;96852.28;;;8.03;93.86
38912;BME280;28444;48.056;14.408;2023-03-31T06:10:24;96851.94;;;8.16;93.91
38912;BME280;28444;48.056;14.408;2023-03-31T06:12:51;96849.69;;;8.23;93.74
38912;BME280;28444;48.056;14.408;2023-03-31T06:15:17;96840.50;;;8.18;94.97
38912;BME280;28444;48.056;14.408;2023-03-31T06:17:44;96835.06;;;8.18;95.05
38912;BME280;28444;48.056;14.408;2023-03-31T06:20:11;96835.38;;;8.22;94.77
38912;BME280;28444;48.056;14.408;2023-03-31T06:22:52;96829.75;;;8.37;94.21
38912;BME280;28444;48.056;14.408;2023-03-31T06:25:19;96823.94;;;8.51;93.36
38912;BME280;28444;48.056;14.408;2023-03-31T06:27:47;96820.09;;;8.54;92.29
38912;BME280;28444;48.056;14.408;2023-03-31T06:30:13;96822.25;;;8.55;91.88
38912;BME280;28444;48.056;14.408;2023-03-31T06:32:40;96818.22;;;8.56;91.45
38912;BME280;28444;48.056;14.408;2023-03-31T06:35:07;96810.56;;;8.45;92.71
38912;BME280;28444;48.056;14.408;2023-03-31T06:37:34;96810.97;;;8.41;92.33
38912;BME280;28444;48.056;14.408;2023-03-31T06:40:01;96815.63;;;8.49;92.00
38912;BME280;28444;48.056;14.408;2023-03-31T06:42:28;96811.03;;;8.51;94.08
38912;BME280;28444;48.056;14.408;2023-03-31T06:44:55;96811.63;;;8.50;94.57
38912;BME280;28444;48.056;14.408;2023-03-31T06:47:21;96805.69;;;8.43;94.25
38912;BME280;28444;48.056;14.408;2023-03-31T06:49:48;96798.72;;;8.50;94.64
38912;BME280;28444;48.056;14.408;2023-03-31T06:52:15;96786.06;;;8.72;94.25
38912;BME280;28444;48.056;14.408;2023-03-31T06:54:41;96786.09;;;8.91;93.91
38912;BME280;28444;48.056;14.408;2023-03-31T06:57:08;96797.50;;;9.07;93.83
38912;BME280;28444;48.056;14.408;2023-03-31T06:59:35;96800.25;;;9.17;93.71
38912;BME280;28444;48.056;14.408;2023-03-31T07:02:02;96791.72;;;8.94;94.20
38912;BME280;28444;48.056;14.408;2023-03-31T07:04:29;96789.28;;;8.98;92.40
38912;BME280;28444;48.056;14.408;2023-03-31T07:06:58;96782.28;;;9.04;92.15
38912;BME280;28444;48.056;14.408;2023-03-31T07:09:24;96784.13;;;9.02;92.53
38912;BME280;28444;48.056;14.408;2023-03-31T07:11:51;96777.25;;;9.01;92.82
38912;BME280;28444;48.056;14.408;2023-03-31T07:14:21;96775.94;;;9.02;92.77
38912;BME280;28444;48.056;14.408;2023-03-31T07:16:48;96764.88;;;9.00;93.15
38912;BME280;28444;48.056;14.408;2023-03-31T07:19:16;96766.31;;;8.91;92.34
38912;BME280;28444;48.056;14.408;2023-03-31T07:21:43;96754.66;;;8.81;93.17
38912;BME280;28444;48.056;14.408;2023-03-31T07:24:10;96750.31;;;8.78;94.15
38912;BME280;28444;48.056;14.408;2023-03-31T07:26:37;96745.16;;;8.82;94.08
38912;BME280;28444;48.056;14.408;2023-03-31T07:29:03;96736.41;;;8.74;93.52
38912;BME280;28444;48.056;14.408;2023-03-31T07:31:30;96733.69;;;8.74;94.63
38912;BME280;28444;48.056;14.408;2023-03-31T07:33:57;96724.50;;;8.69;94.61
38912;BME280;28444;48.056;14.408;2023-03-31T07:36:23;96727.38;;;8.81;94.36
38912;BME280;28444;48.056;14.408;2023-03-31T07:38:50;96721.81;;;8.88;93.66
38912;BME280;28444;48.056;14.408;2023-03-31T07:41:19;96717.78;;;8.89;93.15
38912;BME280;28444;48.056;14.408;2023-03-31T07:43:47;96712.19;;;8.87;93.33
38912;BME280;28444;48.056;14.408;2023-03-31T07:46:19;96698.44;;;8.95;92.40
38912;BME280;28444;48.056;14.408;2023-03-31T07:48:47;96685.09;;;8.99;92.44
38912;BME280;28444;48.056;14.408;2023-03-31T07:51:17;96684.25;;;9.06;92.98
38912;BME280;28444;48.056;14.408;2023-03-31T07:53:44;96686.28;;;9.15;92.82
38912;BME280;28444;48.056;14.408;2023-03-31T07:56:11;96684.09;;;9.14;91.01
38912;BME280;28444;48.056;14.408;2023-03-31T07:58:38;96685.56;;;9.15;92.38
38912;BME280;28444;48.056;14.408;2023-03-31T08:01:05;96686.28;;;9.15;92.62
38912;BME280;28444;48.056;14.408;2023-03-31T08:03:33;96679.34;;;9.14;92.94
38912;BME280;28444;48.056;14.408;2023-03-31T08:06:00;96672.03;;;9.07;93.80
38912;BME280;28444;48.056;14.408;2023-03-31T08:08:27;96671.75;;;9.03;94.41
38912;BME280;28444;48.056;14.408;2023-03-31T08:10:54;96662.84;;;9.03;94.79
38912;BME280;28444;48.056;14.408;2023-03-31T08:13:20;96666.31;;;9.13;93.41
38912;BME280;28444;48.056;14.408;2023-03-31T08:15:47;96658.25;;;9.25;93.41
38912;BME280;28444;48.056;14.408;2023-03-31T08:18:14;96651.78;;;9.39;92.21
38912;BME280;28444;48.056;14.408;2023-03-31T08:20:41;96649.66;;;9.38;92.31
38912;BME280;28444;48.056;14.408;2023-03-31T08:23:08;96650.38;;;9.48;92.49
38912;BME280;28444;48.056;14.408;2023-03-31T08:25:37;96641.59;;;9.40;92.80
38912;BME280;28444;48.056;14.408;2023-03-31T08:28:04;96642.19;;;9.48;92.98
38912;BME280;28444;48.056;14.408;2023-03-31T08:30:32;96622.38;;;9.48;92.31
38912;BME280;28444;48.056;14.408;2023-03-31T08:32:58;96619.91;;;9.52;92.55
38912;BME280;28444;48.056;14.408;2023-03-31T08:35:25;96617.56;;;9.68;91.23
38912;BME280;28444;48.056;14.408;2023-03-31T08:37:52;96609.50;;;9.79;91.31
38912;BME280;28444;48.056;14.408;2023-03-31T08:40:22;96599.44;;;9.82;89.76
38912;BME280;28444;48.056;14.408;2023-03-31T08:42:52;96602.28;;;9.84;90.60
38912;BME280;28444;48.056;14.408;2023-03-31T08:45:26;96604.72;;;9.89;89.85
38912;BME280;28444;48.056;14.408;2023-03-31T08:48:03;96598.63;;;10.01;89.54
38912;BME280;28444;48.056;14.408;2023-03-31T08:50:35;96588.44;;;10.01;89.19
38912;BME280;28444;48.056;14.408;2023-03-31T08:53:26;96591.44;;;10.05;89.56
38912;BME280;28444;48.056;14.408;2023-03-31T08:55:55;96593.44;;;10.05;89.46
38912;BME280;28444;48.056;14.408;2023-03-31T09:01:43;96567.59;;;10.06;91.33
38912;BME280;28444;48.056;14.408;2023-03-31T09:04:47;96565.44;;;9.95;91.42
38912;BME280;28444;48.056;14.408;2023-03-31T09:10:42;96582.41;;;10.03;92.25
38912;BME280;28444;48.056;14.408;2023-03-31T09:13:46;96598.78;;;10.03;91.41
38912;BME280;28444;48.056;14.408;2023-03-31T09:16:23;96599.84;;;10.19;90.50
38912;BME280;28444;48.056;14.408;2023-03-31T09:18:54;96597.44;;;10.13;89.87
38912;BME280;28444;48.056;14.408;2023-03-31T09:21:29;96605.06;;;10.15;90.61
38912;BME280;28444;48.056;14.408;2023-03-31T09:24:22;96618.13;;;10.17;89.95
38912;BME280;28444;48.056;14.408;2023-03-31T09:27:06;96628.31;;;10.26;90.58
38912;BME280;28444;48.056;14.408;2023-03-31T09:29:44;96655.22;;;10.29;91.41
38912;BME280;28444;48.056;14.408;2023-03-31T09:32:17;96635.25;;;10.48;89.94
38912;BME280;28444;48.056;14.408;2023-03-31T09:34:47;96677.69;;;10.49;86.59
38912;BME280;28444;48.056;14.408;2023-03-31T09:37:16;96682.44;;;10.49;88.44
38912;BME280;28444;48.056;14.408;2023-03-31T09:39:43;96673.41;;;10.46;88.27
38912;BME280;28444;48.056;14.408;2023-03-31T09:42:12;96714.69;;;10.41;89.53
38912;BME280;28444;48.056;14.408;2023-03-31T09:44:42;96686.50;;;10.38;89.72
38912;BME280;28444;48.056;14.408;2023-03-31T09:47:15;96695.66;;;10.52;90.41
38912;BME280;28444;48.056;14.408;2023-03-31T09:49:45;96698.78;;;10.27;92.16
38912;BME280;28444;48.056;14.408;2023-03-31T09:52:31;96712.69;;;10.41;93.67
38912;BME280;28444;48.056;14.408;2023-03-31T09:55:00;96686.00;;;10.61;92.95
38912;BME280;28444;48.056;14.408;2023-03-31T09:57:33;96659.19;;;10.91;93.72
38912;BME280;28444;48.056;14.408;2023-03-31T10:00:04;96650.66;;;11.18;92.27
38912;BME280;28444;48.056;14.408;2023-03-31T10:03:04;96624.53;;;11.26;91.45
38912;BME280;28444;48.056;14.408;2023-03-31T10:05:38;96607.69;;;11.42;90.76
38912;BME280;28444;48.056;14.408;2023-03-31T10:08:58;96596.59;;;11.40;89.62
38912;BME280;28444;48.056;14.408;2023-03-31T10:11:28;96578.53;;;11.46;89.32
38912;BME280;28444;48.056;14.408;2023-03-31T10:14:14;96565.50;;;11.23;88.90
38912;BME280;28444;48.056;14.408;2023-03-31T10:16:49;96538.50;;;11.29;88.67
38912;BME280;28444;48.056;14.408;2023-03-31T10:19:27;96534.56;;;11.32;88.87
38912;BME280;28444;48.056;14.408;2023-03-31T10:24:45;96514.13;;;11.45;86.95
38912;BME280;28444;48.056;14.408;2023-03-31T10:27:27;96510.34;;;11.62;85.01
38912;BME280;28444;48.056;14.408;2023-03-31T10:29:59;96506.53;;;11.79;85.92
38912;BME280;28444;48.056;14.408;2023-03-31T10:32:37;96509.88;;;11.77;84.74
38912;BME280;28444;48.056;14.408;2023-03-31T10:35:20;96507.63;;;11.86;82.28
38912;BME280;28444;48.056;14.408;2023-03-31T10:37:50;96511.31;;;11.90;81.65
38912;BME280;28444;48.056;14.408;2023-03-31T10:40:22;96499.63;;;12.01;82.14
38912;BME280;28444;48.056;14.408;2023-03-31T10:42:59;96484.97;;;12.09;80.90
38912;BME280;28444;48.056;14.408;2023-03-31T10:45:29;96478.31;;;12.12;81.39
38912;BME280;28444;48.056;14.408;2023-03-31T10:48:08;96487.72;;;12.09;80.36
38912;BME280;28444;48.056;14.408;2023-03-31T10:50:42;96486.28;;;12.19;81.74
38912;BME280;28444;48.056;14.408;2023-03-31T10:53:12;96467.56;;;12.27;79.90
38912;BME280;28444;48.056;14.408;2023-03-31T10:58:58;96479.81;;;12.26;81.21
38912;BME280;28444;48.056;14.408;2023-03-31T11:01:50;96472.78;;;12.23;79.97
38912;BME280;28444;48.056;14.408;2023-03-31T11:04:51;96499.38;;;12.33;80.58
38912;BME280;28444;48.056;14.408;2023-03-31T11:14:10;96492.66;;;12.47;80.00
38912;BME280;28444;48.056;14.408;2023-03-31T11:17:48;96498.41;;;12.40;81.59
38912;BME280;28444;48.056;14.408;2023-03-31T11:20:30;96485.78;;;12.35;80.83
38912;BME280;28444;48.056;14.408;2023-03-31T11:23:35;96460.72;;;12.40;80.08
38912;BME280;28444;48.056;14.408;2023-03-31T11:26:13;96444.50;;;12.44;79.71
38912;BME280;28444;48.056;14.408;2023-03-31T11:32:40;96437.19;;;12.49;79.16
38912;BME280;28444;48.056;14.408;2023-03-31T11:41:12;96434.50;;;12.37;79.57
38912;BME280;28444;48.056;14.408;2023-03-31T11:43:48;96428.88;;;12.47;80.87
38912;BME280;28444;48.056;14.408;2023-03-31T11:49:10;96423.25;;;12.82;78.98
38912;BME280;28444;48.056;14.408;2023-03-31T11:51:56;96418.25;;;12.79;78.83
38912;BME280;28444;48.056;14.408;2023-03-31T11:57:20;96382.63;;;13.06;79.34
38912;BME280;28444;48.056;14.408;2023-03-31T11:59:54;96385.84;;;13.28;78.17
38912;BME280;28444;48.056;14.408;2023-03-31T12:05:03;96381.06;;;13.42;77.98
38912;BME280;28444;48.056;14.408;2023-03-31T12:07:37;96363.81;;;13.40;78.20
38912;BME280;28444;48.056;14.408;2023-03-31T12:10:19;96363.19;;;13.41;74.44
38912;BME280;28444;48.056;14.408;2023-03-31T12:16:13;96366.72;;;13.58;74.64
38912;BME280;28444;48.056;14.408;2023-03-31T12:19:24;96347.72;;;13.48;74.00
38912;BME280;28444;48.056;14.408;2023-03-31T12:21:57;96340.50;;;13.41;74.79
38912;BME280;28444;48.056;14.408;2023-03-31T12:24:29;96329.41;;;13.39;74.74
38912;BME280;28444;48.056;14.408;2023-03-31T12:27:12;96333.69;;;13.42;74.81
38912;BME280;28444;48.056;14.408;2023-03-31T12:29:47;96326.78;;;13.41;75.54
38912;BME280;28444;48.056;14.408;2023-03-31T12:32:19;96333.06;;;13.43;74.33
38912;BME280;28444;48.056;14.408;2023-03-31T12:34:54;96327.50;;;13.41;74.73
38912;BME280;28444;48.056;14.408;2023-03-31T12:38:28;96331.94;;;13.62;73.93
38912;BME280;28444;48.056;14.408;2023-03-31T12:51:06;96340.91;;;14.06;72.68
38912;BME280;28444;48.056;14.408;2023-03-31T12:57:03;96351.44;;;13.82;70.30
38912;BME280;28444;48.056;14.408;2023-03-31T12:59:44;96366.22;;;13.61;72.33
38912;BME280;28444;48.056;14.408;2023-03-31T13:02:21;96362.88;;;13.49;75.28
38912;BME280;28444;48.056;14.408;2023-03-31T13:04:49;96374.06;;;13.39;72.89
38912;BME280;28444;48.056;14.408;2023-03-31T13:07:36;96373.09;;;13.07;71.66
38912;BME280;28444;48.056;14.408;2023-03-31T13:10:56;96381.25;;;12.80;68.93
38912;BME280;28444;48.056;14.408;2023-03-31T13:16:41;96361.31;;;12.40;70.54
38912;BME280;28444;48.056;14.408;2023-03-31T13:19:31;96388.56;;;12.24;73.10
38912;BME280;28444;48.056;14.408;2023-03-31T13:22:30;96384.84;;;11.94;75.57
38912;BME280;28444;48.056;14.408;2023-03-31T13:28:34;96340.50;;;11.25;78.47
38912;BME280;28444;48.056;14.408;2023-03-31T13:31:11;96371.69;;;11.08;81.08
38912;BME280;28444;48.056;14.408;2023-03-31T13:33:58;96397.81;;;10.88;81.04
38912;BME280;28444;48.056;14.408;2023-03-31T13:36:38;96397.44;;;10.81;81.97
38912;BME280;28444;48.056;14.408;2023-03-31T13:39:28;96394.91;;;10.62;82.77
38912;BME280;28444;48.056;14.408;2023-03-31T13:45:49;96453.19;;;10.43;86.22
38912;BME280;28444;48.056;14.408;2023-03-31T13:54:52;96403.69;;;9.84;93.63
38912;BME280;28444;48.056;14.408;2023-03-31T14:01:47;96372.31;;;9.74;94.94
38912;BME280;28444;48.056;14.408;2023-03-31T14:05:26;96370.53;;;9.78;95.77
38912;BME280;28444;48.056;14.408;2023-03-31T14:07:39;96383.28;;;9.85;94.09
38912;BME280;28444;48.056;14.408;2023-03-31T14:10:24;96369.75;;;9.87;94.19
38912;BME280;28444;48.056;14.408;2023-03-31T14:12:51;96360.00;;;9.84;93.64
38912;BME280;28444;48.056;14.408;2023-03-31T14:15:19;96343.38;;;9.80;91.90
38912;BME280;28444;48.056;14.408;2023-03-31T14:17:45;96328.78;;;9.87;89.00
38912;BME280;28444;48.056;14.408;2023-03-31T14:20:40;96318.81;;;9.80;87.07
38912;BME280;28444;48.056;14.408;2023-03-31T14:23:44;96306.31;;;9.77;84.89
38912;BME280;28444;48.056;14.408;2023-03-31T14:29:40;96260.38;;;9.74;83.40
38912;BME280;28444;48.056;14.408;2023-03-31T14:32:47;96280.50;;;9.69;82.38
38912;BME280;28444;48.056;14.408;2023-03-31T14:35:30;96274.47;;;9.70;80.92
38912;BME280;28444;48.056;14.408;2023-03-31T14:38:01;96278.19;;;9.75;80.36
38912;BME280;28444;48.056;14.408;2023-03-31T14:40:29;96272.25;;;9.78;80.56
38912;BME280;28444;48.056;14.408;2023-03-31T14:42:56;96266.94;;;9.80;80.46
38912;BME280;28444;48.056;14.408;2023-03-31T14:45:24;96267.19;;;9.84;80.91
38912;BME280;28444;48.056;14.408;2023-03-31T14:47:56;96254.34;;;9.87;78.32
38912;BME280;28444;48.056;14.408;2023-03-31T14:50:33;96257.78;;;9.87;79.10
38912;BME280;28444;48.056;14.408;2023-03-31T14:53:00;96259.88;;;9.99;78.15
38912;BME280;28444;48.056;14.408;2023-03-31T14:55:30;96257.00;;;9.97;76.20
38912;BME280;28444;48.056;14.408;2023-03-31T14:58:34;96252.75;;;10.05;77.64
38912;BME280;28444;48.056;14.408;2023-03-31T15:01:04;96252.88;;;10.07;78.61
38912;BME280;28444;48.056;14.408;2023-03-31T15:03:44;96249.44;;;10.07;77.14
38912;BME280;28444;48.056;14.408;2023-03-31T15:06:14;96244.59;;;10.17;76.25
38912;BME280;28444;48.056;14.408;2023-03-31T15:08:41;96258.97;;;10.18;74.05
38912;BME280;28444;48.056;14.408;2023-03-31T15:11:12;96266.06;;;10.11;74.67
38912;BME280;28444;48.056;14.408;2023-03-31T15:13:47;96266.06;;;10.11;75.03